sensor_id;sensor_type;location;lat;lon;timestamp;P1;durP1;ratioP1;P2;durP2;ratioP2
12745;SDS011;6437;53.686;10.030;2023-07-02T00:01:03;5.72;;;1.17;;
12745;SDS011;6437;53.686;10.030;2023-07-02T00:03:04;3.42;;;1.13;;
12745;SDS011;6437;53.686;10.030;2023-07-02T00:05:06;5.30;;;0.88;;
12745;SDS011;6437;53.686;10.030;2023-07-02T00:07:07;2.40;;;0.98;;
12745;SDS011;6437;53.686;10.030;2023-07-02T00:09:08;8.27;;;1.95;;
12745;SDS011;6437;53.686;10.030;2023-07-02T00:11:10;4.65;;;1.05;;
12745;SDS011;6437;53.686;10.030;2023-07-02T00:13:12;10.68;;;1.58;;
12745;SDS011;6437;53.686;10.030;2023-07-02T00:15:14;8.95;;;1.38;;
12745;SDS011;6437;53.686;10.030;2023-07-02T00:17:15;4.35;;;1.15;;
12745;SDS011;6437;53.686;10.030;2023-07-02T00:19:16;7.38;;;1.42;;
12745;SDS011;6437;53.686;10.030;2023-07-02T00:21:18;6.32;;;1.20;;
12745;SDS011;6437;53.686;10.030;2023-07-02T00:23:19;12.93;;;1.73;;
12745;SDS011;6437;53.686;10.030;2023-07-02T00:25:20;7.20;;;1.23;;
12745;SDS011;6437;53.686;10.030;2023-07-02T00:27:21;11.13;;;1.35;;
12745;SDS011;6437;53.686;10.030;2023-07-02T00:29:22;8.38;;;0.88;;
12745;SDS011;6437;53.686;10.030;2023-07-02T00:31:23;12.55;;;1.58;;
12745;SDS011;6437;53.686;10.030;2023-07-02T00:33:25;6.95;;;1.23;;
12745;SDS011;6437;53.686;10.030;2023-07-02T00:35:26;4.82;;;1.20;;
12745;SDS011;6437;53.686;10.030;2023-07-02T00:37:27;9.52;;;1.27;;
12745;SDS011;6437;53.686;10.030;2023-07-02T00:39:28;5.05;;;1.33;;
12745;SDS011;6437;53.686;10.030;2023-07-02T00:41:29;11.07;;;1.17;;
12745;SDS011;6437;53.686;10.030;2023-07-02T00:43:30;14.43;;;2.22;;
12745;SDS011;6437;53.686;10.030;2023-07-02T00:45:32;8.70;;;1.30;;
12745;SDS011;6437;53.686;10.030;2023-07-02T00:47:33;6.07;;;1.83;;
12745;SDS011;6437;53.686;10.030;2023-07-02T00:49:36;7.10;;;1.35;;
12745;SDS011;6437;53.686;10.030;2023-07-02T00:53:38;7.30;;;1.90;;
12745;SDS011;6437;53.686;10.030;2023-07-02T00:55:39;6.40;;;2.05;;
12745;SDS011;6437;53.686;10.030;2023-07-02T00:57:40;17.70;;;2.15;;
12745;SDS011;6437;53.686;10.030;2023-07-02T00:59:46;14.77;;;1.85;;
12745;SDS011;6437;53.686;10.030;2023-07-02T01:01:47;8.10;;;1.55;;
12745;SDS011;6437;53.686;10.030;2023-07-02T01:03:50;5.15;;;1.48;;
12745;SDS011;6437;53.686;10.030;2023-07-02T01:05:55;11.52;;;1.23;;
12745;SDS011;6437;53.686;10.030;2023-07-02T01:07:56;5.85;;;1.25;;
12745;SDS011;6437;53.686;10.030;2023-07-02T01:09:57;13.27;;;1.67;;
12745;SDS011;6437;53.686;10.030;2023-07-02T01:11:59;12.45;;;1.27;;
12745;SDS011;6437;53.686;10.030;2023-07-02T01:14:04;8.90;;;1.50;;
12745;SDS011;6437;53.686;10.030;2023-07-02T01:16:08;8.35;;;1.33;;
12745;SDS011;6437;53.686;10.030;2023-07-02T01:18:09;5.00;;;1.30;;
12745;SDS011;6437;53.686;10.030;2023-07-02T01:20:12;3.30;;;1.40;;
12745;SDS011;6437;53.686;10.030;2023-07-02T01:22:13;10.48;;;2.88;;
12745;SDS011;6437;53.686;10.030;2023-07-02T01:24:14;7.30;;;1.45;;
12745;SDS011;6437;53.686;10.030;2023-07-02T01:28:18;12.25;;;1.20;;
12745;SDS011;6437;53.686;10.030;2023-07-02T01:30:19;5.00;;;1.10;;
12745;SDS011;6437;53.686;10.030;2023-07-02T01:32:20;8.25;;;1.50;;
12745;SDS011;6437;53.686;10.030;2023-07-02T01:34:21;4.28;;;1.75;;
12745;SDS011;6437;53.686;10.030;2023-07-02T01:36:23;15.05;;;1.60;;
12745;SDS011;6437;53.686;10.030;2023-07-02T01:38:24;7.60;;;1.65;;
12745;SDS011;6437;53.686;10.030;2023-07-02T01:40:25;6.03;;;1.65;;
12745;SDS011;6437;53.686;10.030;2023-07-02T01:42:26;7.75;;;2.13;;
12745;SDS011;6437;53.686;10.030;2023-07-02T01:44:28;6.88;;;1.33;;
12745;SDS011;6437;53.686;10.030;2023-07-02T01:46:29;8.82;;;2.17;;
12745;SDS011;6437;53.686;10.030;2023-07-02T01:48:30;7.20;;;2.00;;
12745;SDS011;6437;53.686;10.030;2023-07-02T01:50:31;6.25;;;1.45;;
12745;SDS011;6437;53.686;10.030;2023-07-02T01:52:32;8.05;;;1.67;;
12745;SDS011;6437;53.686;10.030;2023-07-02T01:54:34;6.78;;;1.35;;
12745;SDS011;6437;53.686;10.030;2023-07-02T01:56:36;7.10;;;2.72;;
12745;SDS011;6437;53.686;10.030;2023-07-02T01:58:37;10.35;;;1.67;;
12745;SDS011;6437;53.686;10.030;2023-07-02T02:00:38;9.57;;;1.70;;
12745;SDS011;6437;53.686;10.030;2023-07-02T02:02:39;18.30;;;1.60;;
12745;SDS011;6437;53.686;10.030;2023-07-02T02:04:40;9.02;;;2.30;;
12745;SDS011;6437;53.686;10.030;2023-07-02T02:06:42;7.00;;;1.73;;
12745;SDS011;6437;53.686;10.030;2023-07-02T02:08:44;12.85;;;3.28;;
12745;SDS011;6437;53.686;10.030;2023-07-02T02:10:46;9.32;;;1.80;;
12745;SDS011;6437;53.686;10.030;2023-07-02T02:12:47;5.32;;;2.20;;
12745;SDS011;6437;53.686;10.030;2023-07-02T02:14:48;6.57;;;1.77;;
12745;SDS011;6437;53.686;10.030;2023-07-02T02:16:49;11.27;;;2.80;;
12745;SDS011;6437;53.686;10.030;2023-07-02T02:18:51;9.10;;;2.40;;
12745;SDS011;6437;53.686;10.030;2023-07-02T02:20:52;5.45;;;1.67;;
12745;SDS011;6437;53.686;10.030;2023-07-02T02:22:53;8.52;;;2.45;;
12745;SDS011;6437;53.686;10.030;2023-07-02T02:24:54;17.30;;;1.73;;
12745;SDS011;6437;53.686;10.030;2023-07-02T02:26:55;6.03;;;1.75;;
12745;SDS011;6437;53.686;10.030;2023-07-02T02:28:56;8.50;;;1.65;;
12745;SDS011;6437;53.686;10.030;2023-07-02T02:30:57;11.88;;;1.95;;
12745;SDS011;6437;53.686;10.030;2023-07-02T02:32:58;11.13;;;2.28;;
12745;SDS011;6437;53.686;10.030;2023-07-02T02:35:00;8.52;;;2.38;;
12745;SDS011;6437;53.686;10.030;2023-07-02T02:37:01;13.45;;;3.08;;
12745;SDS011;6437;53.686;10.030;2023-07-02T02:39:02;5.43;;;2.58;;
12745;SDS011;6437;53.686;10.030;2023-07-02T02:41:05;7.32;;;1.88;;
12745;SDS011;6437;53.686;10.030;2023-07-02T02:43:08;12.23;;;2.22;;
12745;SDS011;6437;53.686;10.030;2023-07-02T02:45:09;6.97;;;1.48;;
12745;SDS011;6437;53.686;10.030;2023-07-02T02:47:10;10.03;;;1.97;;
12745;SDS011;6437;53.686;10.030;2023-07-02T02:49:11;9.23;;;2.10;;
12745;SDS011;6437;53.686;10.030;2023-07-02T02:51:12;10.60;;;2.17;;
12745;SDS011;6437;53.686;10.030;2023-07-02T02:53:13;17.38;;;2.20;;
12745;SDS011;6437;53.686;10.030;2023-07-02T02:55:15;8.05;;;2.10;;
12745;SDS011;6437;53.686;10.030;2023-07-02T02:57:16;11.10;;;1.95;;
12745;SDS011;6437;53.686;10.030;2023-07-02T02:59:17;4.53;;;1.77;;
12745;SDS011;6437;53.686;10.030;2023-07-02T03:01:18;11.10;;;2.55;;
12745;SDS011;6437;53.686;10.030;2023-07-02T03:03:19;10.60;;;2.08;;
12745;SDS011;6437;53.686;10.030;2023-07-02T03:05:21;6.82;;;1.98;;
12745;SDS011;6437;53.686;10.030;2023-07-02T03:07:22;6.70;;;2.22;;
12745;SDS011;6437;53.686;10.030;2023-07-02T03:09:23;11.05;;;3.15;;
12745;SDS011;6437;53.686;10.030;2023-07-02T03:11:24;19.77;;;2.75;;
12745;SDS011;6437;53.686;10.030;2023-07-02T03:13:26;16.95;;;3.10;;
12745;SDS011;6437;53.686;10.030;2023-07-02T03:15:27;8.07;;;2.97;;
12745;SDS011;6437;53.686;10.030;2023-07-02T03:17:28;10.07;;;2.03;;
12745;SDS011;6437;53.686;10.030;2023-07-02T03:19:29;9.32;;;1.85;;
12745;SDS011;6437;53.686;10.030;2023-07-02T03:21:30;10.70;;;2.53;;
12745;SDS011;6437;53.686;10.030;2023-07-02T03:23:32;10.45;;;2.58;;
12745;SDS011;6437;53.686;10.030;2023-07-02T03:25:33;13.13;;;2.55;;
12745;SDS011;6437;53.686;10.030;2023-07-02T03:27:34;10.18;;;3.03;;
12745;SDS011;6437;53.686;10.030;2023-07-02T03:29:36;10.77;;;1.98;;
12745;SDS011;6437;53.686;10.030;2023-07-02T03:31:38;18.15;;;3.42;;
12745;SDS011;6437;53.686;10.030;2023-07-02T03:33:39;13.23;;;2.47;;
12745;SDS011;6437;53.686;10.030;2023-07-02T03:35:40;12.70;;;2.50;;
12745;SDS011;6437;53.686;10.030;2023-07-02T03:37:41;8.93;;;2.28;;
12745;SDS011;6437;53.686;10.030;2023-07-02T03:39:43;9.25;;;2.53;;
12745;SDS011;6437;53.686;10.030;2023-07-02T03:41:45;10.45;;;2.38;;
12745;SDS011;6437;53.686;10.030;2023-07-02T03:43:46;21.33;;;3.20;;
12745;SDS011;6437;53.686;10.030;2023-07-02T03:45:48;13.73;;;3.25;;
12745;SDS011;6437;53.686;10.030;2023-07-02T03:47:49;7.68;;;2.42;;
12745;SDS011;6437;53.686;10.030;2023-07-02T03:49:50;14.80;;;2.40;;
12745;SDS011;6437;53.686;10.030;2023-07-02T03:51:51;15.18;;;3.50;;
12745;SDS011;6437;53.686;10.030;2023-07-02T03:53:52;6.78;;;2.65;;
12745;SDS011;6437;53.686;10.030;2023-07-02T03:55:54;7.78;;;3.13;;
12745;SDS011;6437;53.686;10.030;2023-07-02T03:57:55;13.45;;;3.22;;
12745;SDS011;6437;53.686;10.030;2023-07-02T03:59:56;19.38;;;3.75;;
12745;SDS011;6437;53.686;10.030;2023-07-02T04:01:57;16.90;;;3.55;;
12745;SDS011;6437;53.686;10.030;2023-07-02T04:03:58;9.77;;;4.57;;
12745;SDS011;6437;53.686;10.030;2023-07-02T04:05:59;11.35;;;4.07;;
12745;SDS011;6437;53.686;10.030;2023-07-02T04:08:01;16.10;;;3.13;;
12745;SDS011;6437;53.686;10.030;2023-07-02T04:10:02;15.93;;;4.22;;
12745;SDS011;6437;53.686;10.030;2023-07-02T04:12:03;18.93;;;4.17;;
12745;SDS011;6437;53.686;10.030;2023-07-02T04:14:05;14.32;;;4.00;;
12745;SDS011;6437;53.686;10.030;2023-07-02T04:16:06;13.88;;;3.58;;
12745;SDS011;6437;53.686;10.030;2023-07-02T04:18:08;19.92;;;5.22;;
12745;SDS011;6437;53.686;10.030;2023-07-02T04:20:09;9.73;;;3.60;;
12745;SDS011;6437;53.686;10.030;2023-07-02T04:22:11;17.75;;;5.25;;
12745;SDS011;6437;53.686;10.030;2023-07-02T04:24:12;15.85;;;4.97;;
12745;SDS011;6437;53.686;10.030;2023-07-02T04:26:13;13.73;;;4.15;;
12745;SDS011;6437;53.686;10.030;2023-07-02T04:28:14;21.90;;;4.25;;
12745;SDS011;6437;53.686;10.030;2023-07-02T04:30:15;19.88;;;4.28;;
12745;SDS011;6437;53.686;10.030;2023-07-02T04:32:16;12.45;;;4.90;;
12745;SDS011;6437;53.686;10.030;2023-07-02T04:34:17;26.98;;;5.00;;
12745;SDS011;6437;53.686;10.030;2023-07-02T04:36:21;19.98;;;5.25;;
12745;SDS011;6437;53.686;10.030;2023-07-02T04:38:22;24.77;;;5.55;;
12745;SDS011;6437;53.686;10.030;2023-07-02T04:40:23;17.58;;;5.05;;
12745;SDS011;6437;53.686;10.030;2023-07-02T04:42:24;15.85;;;5.25;;
12745;SDS011;6437;53.686;10.030;2023-07-02T04:44:27;21.75;;;4.63;;
12745;SDS011;6437;53.686;10.030;2023-07-02T04:46:29;20.60;;;4.95;;
12745;SDS011;6437;53.686;10.030;2023-07-02T04:48:30;20.05;;;5.13;;
12745;SDS011;6437;53.686;10.030;2023-07-02T04:50:32;18.83;;;4.85;;
12745;SDS011;6437;53.686;10.030;2023-07-02T04:52:33;25.30;;;6.93;;
12745;SDS011;6437;53.686;10.030;2023-07-02T04:54:34;20.75;;;6.30;;
12745;SDS011;6437;53.686;10.030;2023-07-02T04:56:35;17.35;;;5.00;;
12745;SDS011;6437;53.686;10.030;2023-07-02T04:58:36;21.33;;;5.53;;
12745;SDS011;6437;53.686;10.030;2023-07-02T05:00:38;19.47;;;6.10;;
12745;SDS011;6437;53.686;10.030;2023-07-02T05:02:39;25.02;;;6.43;;
12745;SDS011;6437;53.686;10.030;2023-07-02T05:04:40;12.90;;;4.75;;
12745;SDS011;6437;53.686;10.030;2023-07-02T05:06:42;25.88;;;6.28;;
12745;SDS011;6437;53.686;10.030;2023-07-02T05:08:43;22.38;;;6.60;;
12745;SDS011;6437;53.686;10.030;2023-07-02T05:10:44;27.35;;;6.53;;
12745;SDS011;6437;53.686;10.030;2023-07-02T05:12:46;18.55;;;5.38;;
12745;SDS011;6437;53.686;10.030;2023-07-02T05:14:48;14.93;;;5.93;;
12745;SDS011;6437;53.686;10.030;2023-07-02T05:16:49;28.27;;;7.05;;
12745;SDS011;6437;53.686;10.030;2023-07-02T05:18:50;28.83;;;8.37;;
12745;SDS011;6437;53.686;10.030;2023-07-02T05:20:51;30.27;;;8.35;;
12745;SDS011;6437;53.686;10.030;2023-07-02T05:22:53;16.17;;;5.68;;
12745;SDS011;6437;53.686;10.030;2023-07-02T05:24:54;18.02;;;6.57;;
12745;SDS011;6437;53.686;10.030;2023-07-02T05:26:55;22.58;;;5.85;;
12745;SDS011;6437;53.686;10.030;2023-07-02T05:28:56;19.13;;;6.97;;
12745;SDS011;6437;53.686;10.030;2023-07-02T05:30:57;24.15;;;6.10;;
12745;SDS011;6437;53.686;10.030;2023-07-02T05:32:58;27.40;;;6.88;;
12745;SDS011;6437;53.686;10.030;2023-07-02T05:34:59;21.63;;;7.10;;
12745;SDS011;6437;53.686;10.030;2023-07-02T05:37:00;22.88;;;5.40;;
12745;SDS011;6437;53.686;10.030;2023-07-02T05:39:02;29.65;;;6.15;;
12745;SDS011;6437;53.686;10.030;2023-07-02T05:41:03;28.75;;;7.53;;
12745;SDS011;6437;53.686;10.030;2023-07-02T05:43:04;22.70;;;7.20;;
12745;SDS011;6437;53.686;10.030;2023-07-02T05:45:05;23.92;;;7.25;;
12745;SDS011;6437;53.686;10.030;2023-07-02T05:47:06;20.25;;;7.03;;
12745;SDS011;6437;53.686;10.030;2023-07-02T05:49:08;24.73;;;6.93;;
12745;SDS011;6437;53.686;10.030;2023-07-02T05:51:09;27.50;;;6.75;;
12745;SDS011;6437;53.686;10.030;2023-07-02T05:53:10;17.55;;;6.45;;
12745;SDS011;6437;53.686;10.030;2023-07-02T05:55:11;26.98;;;7.53;;
12745;SDS011;6437;53.686;10.030;2023-07-02T05:57:13;23.05;;;6.95;;
12745;SDS011;6437;53.686;10.030;2023-07-02T05:59:14;25.35;;;7.63;;
12745;SDS011;6437;53.686;10.030;2023-07-02T06:01:17;30.42;;;8.35;;
12745;SDS011;6437;53.686;10.030;2023-07-02T06:03:18;36.53;;;8.18;;
12745;SDS011;6437;53.686;10.030;2023-07-02T06:05:20;20.02;;;6.82;;
12745;SDS011;6437;53.686;10.030;2023-07-02T06:07:21;27.83;;;7.95;;
12745;SDS011;6437;53.686;10.030;2023-07-02T06:09:22;22.40;;;7.22;;
12745;SDS011;6437;53.686;10.030;2023-07-02T06:11:24;25.10;;;8.37;;
12745;SDS011;6437;53.686;10.030;2023-07-02T06:13:25;21.15;;;6.80;;
12745;SDS011;6437;53.686;10.030;2023-07-02T06:15:26;29.05;;;7.63;;
12745;SDS011;6437;53.686;10.030;2023-07-02T06:17:27;34.13;;;8.23;;
12745;SDS011;6437;53.686;10.030;2023-07-02T06:19:30;28.65;;;8.25;;
12745;SDS011;6437;53.686;10.030;2023-07-02T06:21:31;40.70;;;9.63;;
12745;SDS011;6437;53.686;10.030;2023-07-02T06:23:39;28.00;;;8.02;;
12745;SDS011;6437;53.686;10.030;2023-07-02T06:25:41;38.03;;;9.60;;
12745;SDS011;6437;53.686;10.030;2023-07-02T06:27:43;27.52;;;7.95;;
12745;SDS011;6437;53.686;10.030;2023-07-02T06:29:44;25.25;;;7.72;;
12745;SDS011;6437;53.686;10.030;2023-07-02T06:31:45;32.10;;;9.87;;
12745;SDS011;6437;53.686;10.030;2023-07-02T06:33:46;40.88;;;9.00;;
12745;SDS011;6437;53.686;10.030;2023-07-02T06:35:48;30.37;;;7.50;;
12745;SDS011;6437;53.686;10.030;2023-07-02T06:37:49;33.42;;;9.75;;
12745;SDS011;6437;53.686;10.030;2023-07-02T06:39:51;35.72;;;9.27;;
12745;SDS011;6437;53.686;10.030;2023-07-02T06:41:52;32.63;;;8.40;;
12745;SDS011;6437;53.686;10.030;2023-07-02T06:43:54;32.20;;;9.63;;
12745;SDS011;6437;53.686;10.030;2023-07-02T06:45:55;39.70;;;8.65;;
12745;SDS011;6437;53.686;10.030;2023-07-02T06:47:56;19.95;;;6.68;;
12745;SDS011;6437;53.686;10.030;2023-07-02T06:49:57;34.63;;;8.80;;
12745;SDS011;6437;53.686;10.030;2023-07-02T06:54:00;30.15;;;6.70;;
12745;SDS011;6437;53.686;10.030;2023-07-02T06:56:01;26.90;;;8.90;;
12745;SDS011;6437;53.686;10.030;2023-07-02T06:58:04;30.67;;;8.38;;
12745;SDS011;6437;53.686;10.030;2023-07-02T07:02:08;28.13;;;7.15;;
12745;SDS011;6437;53.686;10.030;2023-07-02T07:04:09;39.47;;;10.20;;
12745;SDS011;6437;53.686;10.030;2023-07-02T07:06:11;32.42;;;7.70;;
12745;SDS011;6437;53.686;10.030;2023-07-02T07:08:12;36.95;;;9.15;;
12745;SDS011;6437;53.686;10.030;2023-07-02T07:10:13;24.77;;;8.05;;
12745;SDS011;6437;53.686;10.030;2023-07-02T07:12:14;23.38;;;7.18;;
12745;SDS011;6437;53.686;10.030;2023-07-02T07:14:15;37.15;;;8.98;;
12745;SDS011;6437;53.686;10.030;2023-07-02T07:16:17;26.30;;;8.77;;
12745;SDS011;6437;53.686;10.030;2023-07-02T07:18:18;25.40;;;7.75;;
12745;SDS011;6437;53.686;10.030;2023-07-02T07:20:19;21.83;;;7.13;;
12745;SDS011;6437;53.686;10.030;2023-07-02T07:22:20;28.30;;;8.00;;
12745;SDS011;6437;53.686;10.030;2023-07-02T07:24:21;30.08;;;8.63;;
12745;SDS011;6437;53.686;10.030;2023-07-02T07:26:22;24.33;;;7.93;;
12745;SDS011;6437;53.686;10.030;2023-07-02T07:28:23;28.85;;;8.45;;
12745;SDS011;6437;53.686;10.030;2023-07-02T07:30:24;30.02;;;9.57;;
12745;SDS011;6437;53.686;10.030;2023-07-02T07:32:26;33.75;;;8.90;;
12745;SDS011;6437;53.686;10.030;2023-07-02T07:34:27;30.60;;;9.80;;
12745;SDS011;6437;53.686;10.030;2023-07-02T07:36:28;30.83;;;8.43;;
12745;SDS011;6437;53.686;10.030;2023-07-02T07:38:29;35.97;;;9.15;;
12745;SDS011;6437;53.686;10.030;2023-07-02T07:40:30;25.65;;;8.60;;
12745;SDS011;6437;53.686;10.030;2023-07-02T07:42:31;26.23;;;8.52;;
12745;SDS011;6437;53.686;10.030;2023-07-02T07:44:32;21.90;;;7.15;;
12745;SDS011;6437;53.686;10.030;2023-07-02T07:46:34;30.40;;;8.85;;
12745;SDS011;6437;53.686;10.030;2023-07-02T07:48:35;31.10;;;9.90;;
12745;SDS011;6437;53.686;10.030;2023-07-02T07:50:36;26.50;;;9.02;;
12745;SDS011;6437;53.686;10.030;2023-07-02T07:52:37;22.88;;;7.93;;
12745;SDS011;6437;53.686;10.030;2023-07-02T07:54:39;30.02;;;8.27;;
12745;SDS011;6437;53.686;10.030;2023-07-02T07:56:40;34.00;;;9.30;;
12745;SDS011;6437;53.686;10.030;2023-07-02T07:58:41;25.55;;;7.53;;
12745;SDS011;6437;53.686;10.030;2023-07-02T08:00:42;25.23;;;9.77;;
12745;SDS011;6437;53.686;10.030;2023-07-02T08:02:44;29.98;;;8.35;;
12745;SDS011;6437;53.686;10.030;2023-07-02T08:04:47;25.48;;;7.75;;
12745;SDS011;6437;53.686;10.030;2023-07-02T08:06:49;29.65;;;9.95;;
12745;SDS011;6437;53.686;10.030;2023-07-02T08:08:50;21.65;;;7.78;;
12745;SDS011;6437;53.686;10.030;2023-07-02T08:10:51;21.42;;;7.63;;
12745;SDS011;6437;53.686;10.030;2023-07-02T08:12:52;21.33;;;7.77;;
12745;SDS011;6437;53.686;10.030;2023-07-02T08:14:53;23.80;;;8.10;;
12745;SDS011;6437;53.686;10.030;2023-07-02T08:16:55;31.03;;;8.00;;
12745;SDS011;6437;53.686;10.030;2023-07-02T08:18:56;22.25;;;7.13;;
12745;SDS011;6437;53.686;10.030;2023-07-02T08:20:57;22.52;;;7.53;;
12745;SDS011;6437;53.686;10.030;2023-07-02T08:22:58;25.88;;;7.53;;
12745;SDS011;6437;53.686;10.030;2023-07-02T08:24:59;23.13;;;7.78;;
12745;SDS011;6437;53.686;10.030;2023-07-02T08:27:01;21.48;;;7.75;;
12745;SDS011;6437;53.686;10.030;2023-07-02T08:29:02;21.38;;;8.13;;
12745;SDS011;6437;53.686;10.030;2023-07-02T08:31:03;23.58;;;7.55;;
12745;SDS011;6437;53.686;10.030;2023-07-02T08:33:05;20.40;;;7.53;;
12745;SDS011;6437;53.686;10.030;2023-07-02T08:35:06;20.05;;;7.72;;
12745;SDS011;6437;53.686;10.030;2023-07-02T08:37:08;28.27;;;8.68;;
12745;SDS011;6437;53.686;10.030;2023-07-02T08:39:09;28.08;;;8.45;;
12745;SDS011;6437;53.686;10.030;2023-07-02T08:41:11;27.30;;;7.63;;
12745;SDS011;6437;53.686;10.030;2023-07-02T08:43:12;17.52;;;5.97;;
12745;SDS011;6437;53.686;10.030;2023-07-02T08:45:14;25.50;;;7.72;;
12745;SDS011;6437;53.686;10.030;2023-07-02T08:47:16;19.90;;;6.15;;
12745;SDS011;6437;53.686;10.030;2023-07-02T08:49:17;28.13;;;8.60;;
12745;SDS011;6437;53.686;10.030;2023-07-02T08:51:18;29.38;;;8.68;;
12745;SDS011;6437;53.686;10.030;2023-07-02T08:53:20;22.05;;;7.47;;
12745;SDS011;6437;53.686;10.030;2023-07-02T08:55:25;26.40;;;6.63;;
12745;SDS011;6437;53.686;10.030;2023-07-02T08:57:29;25.15;;;7.80;;
12745;SDS011;6437;53.686;10.030;2023-07-02T08:59:30;27.73;;;7.20;;
12745;SDS011;6437;53.686;10.030;2023-07-02T09:01:31;25.27;;;7.10;;
12745;SDS011;6437;53.686;10.030;2023-07-02T09:03:32;25.95;;;6.72;;
12745;SDS011;6437;53.686;10.030;2023-07-02T09:05:33;33.78;;;7.53;;
12745;SDS011;6437;53.686;10.030;2023-07-02T09:07:42;15.98;;;5.93;;
12745;SDS011;6437;53.686;10.030;2023-07-02T09:09:45;25.08;;;6.80;;
12745;SDS011;6437;53.686;10.030;2023-07-02T09:11:48;18.65;;;5.93;;
12745;SDS011;6437;53.686;10.030;2023-07-02T09:13:50;22.88;;;6.43;;
12745;SDS011;6437;53.686;10.030;2023-07-02T09:15:53;14.07;;;5.53;;
12745;SDS011;6437;53.686;10.030;2023-07-02T09:17:54;19.98;;;5.22;;
12745;SDS011;6437;53.686;10.030;2023-07-02T09:19:55;20.45;;;6.28;;
12745;SDS011;6437;53.686;10.030;2023-07-02T09:21:57;21.55;;;6.63;;
12745;SDS011;6437;53.686;10.030;2023-07-02T09:23:59;13.90;;;4.75;;
12745;SDS011;6437;53.686;10.030;2023-07-02T09:26:01;21.60;;;5.20;;
12745;SDS011;6437;53.686;10.030;2023-07-02T09:30:14;16.90;;;4.90;;
12745;SDS011;6437;53.686;10.030;2023-07-02T09:32:23;13.05;;;4.53;;
12745;SDS011;6437;53.686;10.030;2023-07-02T09:34:28;15.68;;;3.65;;
12745;SDS011;6437;53.686;10.030;2023-07-02T09:36:29;13.07;;;4.07;;
12745;SDS011;6437;53.686;10.030;2023-07-02T09:38:30;22.98;;;5.05;;
12745;SDS011;6437;53.686;10.030;2023-07-02T09:40:31;18.15;;;6.57;;
12745;SDS011;6437;53.686;10.030;2023-07-02T09:42:34;13.55;;;5.03;;
12745;SDS011;6437;53.686;10.030;2023-07-02T09:44:35;12.25;;;4.10;;
12745;SDS011;6437;53.686;10.030;2023-07-02T09:46:37;14.20;;;4.75;;
12745;SDS011;6437;53.686;10.030;2023-07-02T09:48:43;14.65;;;4.32;;
12745;SDS011;6437;53.686;10.030;2023-07-02T09:50:46;7.95;;;4.07;;
12745;SDS011;6437;53.686;10.030;2023-07-02T09:52:49;20.35;;;5.38;;
12745;SDS011;6437;53.686;10.030;2023-07-02T09:54:51;13.75;;;5.75;;
12745;SDS011;6437;53.686;10.030;2023-07-02T09:56:52;13.38;;;5.35;;
12745;SDS011;6437;53.686;10.030;2023-07-02T09:58:55;18.95;;;6.80;;
12745;SDS011;6437;53.686;10.030;2023-07-02T10:00:58;17.77;;;5.07;;
12745;SDS011;6437;53.686;10.030;2023-07-02T10:03:03;18.88;;;5.45;;
12745;SDS011;6437;53.686;10.030;2023-07-02T10:05:08;17.80;;;4.90;;
12745;SDS011;6437;53.686;10.030;2023-07-02T10:07:09;17.65;;;5.05;;
12745;SDS011;6437;53.686;10.030;2023-07-02T10:09:11;14.63;;;4.78;;
12745;SDS011;6437;53.686;10.030;2023-07-02T10:11:12;14.57;;;5.03;;
12745;SDS011;6437;53.686;10.030;2023-07-02T10:13:14;27.30;;;5.72;;
12745;SDS011;6437;53.686;10.030;2023-07-02T10:15:24;15.43;;;4.93;;
12745;SDS011;6437;53.686;10.030;2023-07-02T10:17:27;10.45;;;3.95;;
12745;SDS011;6437;53.686;10.030;2023-07-02T10:19:29;16.35;;;5.40;;
12745;SDS011;6437;53.686;10.030;2023-07-02T10:21:30;17.53;;;4.57;;
12745;SDS011;6437;53.686;10.030;2023-07-02T10:23:32;21.30;;;4.45;;
12745;SDS011;6437;53.686;10.030;2023-07-02T10:25:35;11.93;;;3.83;;
12745;SDS011;6437;53.686;10.030;2023-07-02T10:27:38;14.65;;;4.68;;
12745;SDS011;6437;53.686;10.030;2023-07-02T10:29:44;11.55;;;3.55;;
12745;SDS011;6437;53.686;10.030;2023-07-02T10:31:50;16.98;;;4.15;;
12745;SDS011;6437;53.686;10.030;2023-07-02T10:33:52;18.20;;;4.63;;
12745;SDS011;6437;53.686;10.030;2023-07-02T10:35:53;12.43;;;3.93;;
12745;SDS011;6437;53.686;10.030;2023-07-02T10:37:55;14.68;;;4.65;;
12745;SDS011;6437;53.686;10.030;2023-07-02T10:45:50;11.05;;;4.05;;
12745;SDS011;6437;53.686;10.030;2023-07-02T10:47:52;8.00;;;2.90;;
12745;SDS011;6437;53.686;10.030;2023-07-02T10:49:53;16.45;;;2.90;;
12745;SDS011;6437;53.686;10.030;2023-07-02T10:51:58;15.77;;;4.30;;
12745;SDS011;6437;53.686;10.030;2023-07-02T10:53:59;23.25;;;3.58;;
12745;SDS011;6437;53.686;10.030;2023-07-02T10:56:02;15.98;;;4.18;;
12745;SDS011;6437;53.686;10.030;2023-07-02T10:58:04;11.80;;;4.30;;
12745;SDS011;6437;53.686;10.030;2023-07-02T11:00:07;12.45;;;3.60;;
12745;SDS011;6437;53.686;10.030;2023-07-02T11:21:08;9.65;;;2.42;;
12745;SDS011;6437;53.686;10.030;2023-07-02T11:23:19;9.02;;;2.60;;
12745;SDS011;6437;53.686;10.030;2023-07-02T11:28:04;16.85;;;3.67;;
12745;SDS011;6437;53.686;10.030;2023-07-02T11:30:07;11.43;;;3.78;;
12745;SDS011;6437;53.686;10.030;2023-07-02T11:34:13;10.70;;;2.78;;
12745;SDS011;6437;53.686;10.030;2023-07-02T11:36:20;13.60;;;3.55;;
12745;SDS011;6437;53.686;10.030;2023-07-02T11:38:22;10.38;;;2.88;;
12745;SDS011;6437;53.686;10.030;2023-07-02T11:40:23;13.88;;;3.90;;
12745;SDS011;6437;53.686;10.030;2023-07-02T11:42:24;23.33;;;3.15;;
12745;SDS011;6437;53.686;10.030;2023-07-02T11:44:25;14.35;;;3.17;;
12745;SDS011;6437;53.686;10.030;2023-07-02T11:46:26;9.05;;;3.75;;
12745;SDS011;6437;53.686;10.030;2023-07-02T11:48:29;10.82;;;3.80;;
12745;SDS011;6437;53.686;10.030;2023-07-02T11:50:37;13.70;;;3.97;;
12745;SDS011;6437;53.686;10.030;2023-07-02T11:52:44;13.77;;;2.80;;
12745;SDS011;6437;53.686;10.030;2023-07-02T11:54:51;15.10;;;2.83;;
12745;SDS011;6437;53.686;10.030;2023-07-02T11:57:06;19.45;;;3.40;;
12745;SDS011;6437;53.686;10.030;2023-07-02T11:59:12;10.57;;;3.78;;
12745;SDS011;6437;53.686;10.030;2023-07-02T12:01:14;11.60;;;2.90;;
12745;SDS011;6437;53.686;10.030;2023-07-02T12:03:31;15.63;;;3.30;;
12745;SDS011;6437;53.686;10.030;2023-07-02T12:05:32;8.63;;;3.35;;
12745;SDS011;6437;53.686;10.030;2023-07-02T12:07:33;13.43;;;3.75;;
12745;SDS011;6437;53.686;10.030;2023-07-02T12:09:35;21.60;;;3.40;;
12745;SDS011;6437;53.686;10.030;2023-07-02T12:13:38;10.50;;;3.97;;
12745;SDS011;6437;53.686;10.030;2023-07-02T12:15:40;8.27;;;2.53;;
12745;SDS011;6437;53.686;10.030;2023-07-02T12:17:45;16.05;;;3.25;;
12745;SDS011;6437;53.686;10.030;2023-07-02T12:19:46;16.65;;;4.25;;
12745;SDS011;6437;53.686;10.030;2023-07-02T12:22:10;12.73;;;3.15;;
12745;SDS011;6437;53.686;10.030;2023-07-02T12:25:06;9.68;;;3.35;;
12745;SDS011;6437;53.686;10.030;2023-07-02T12:27:11;16.73;;;3.90;;
12745;SDS011;6437;53.686;10.030;2023-07-02T12:29:14;17.02;;;2.92;;
12745;SDS011;6437;53.686;10.030;2023-07-02T12:31:17;16.48;;;4.18;;
12745;SDS011;6437;53.686;10.030;2023-07-02T12:33:21;10.98;;;3.95;;
12745;SDS011;6437;53.686;10.030;2023-07-02T12:35:28;7.80;;;3.08;;
12745;SDS011;6437;53.686;10.030;2023-07-02T12:37:47;17.42;;;4.25;;
12745;SDS011;6437;53.686;10.030;2023-07-02T12:39:55;8.82;;;3.50;;
12745;SDS011;6437;53.686;10.030;2023-07-02T12:42:02;14.15;;;2.95;;
12745;SDS011;6437;53.686;10.030;2023-07-02T12:44:05;12.63;;;3.08;;
12745;SDS011;6437;53.686;10.030;2023-07-02T12:46:08;13.65;;;4.00;;
12745;SDS011;6437;53.686;10.030;2023-07-02T12:48:10;10.40;;;3.70;;
12745;SDS011;6437;53.686;10.030;2023-07-02T12:50:13;14.40;;;3.95;;